Latest Weather Observations for Biloela

IDQ60801

Issued at 11:35 pm EST Friday 1 August 2014 (issued every 30 minutes, with the page automatically refreshed every 10 minutes)

About weather observations | Map of weather stations | Latest weather observations for QLD | Other Formats
Station Details ID: 039089 Name: THANGOOL AIRPORT Lat: -24.49 Lon: 150.57 Height: 193.1 m
Data from the previous 72 hours. | See also: Recent months at Biloela
Date/Time
EST
Temp
°C
App
Temp
°C
Dew
Point
Rel
Hum
%
Delta-T
°C
Wind Press
QNH
hPa
Press
MSL
hPa
Rain
since 9 am
mm
Dir
 
Spd
km/h
Gust
km/h
Spd
kts
Gust
kts
01/11:30pm 13.6 12.8 6.5 62 3.4 ENE 0 0 0 0 1017.5 - 0.0
01/11:00pm 13.2 12.4 6.3 63 3.3 SE 0 0 0 0 1017.6 - 0.0
01/10:30pm 13.2 11.9 6.1 62 3.4 SE 2 6 1 3 1017.4 - 0.0
01/10:00pm 13.7 11.1 6.3 61 3.6 E 9 9 5 5 1017.3 - 0.0
01/09:30pm 12.8 10.7 5.7 62 3.4 ESE 6 7 3 4 1017.2 - 0.0
01/09:00pm 13.7 11.5 6.1 60 3.7 E 7 11 4 6 1017.2 1017.1 0.0
01/08:30pm 13.1 10.9 5.5 60 3.6 ESE 6 11 3 6 1017.0 - 0.0
01/08:00pm 14.7 13.7 5.8 55 4.3 CALM 0 0 0 0 1016.7 - 0.0
01/07:30pm 15.3 14.4 6.1 54 4.5 CALM 0 0 0 0 1016.4 - 0.0
01/07:00pm 17.1 15.4 6.0 48 5.5 NW 4 6 2 3 1016.0 - 0.0
01/06:30pm 17.5 14.7 5.1 44 6.0 N 9 11 5 6 1015.5 - 0.0
01/06:00pm 19.7 18.1 4.6 37 7.4 N 2 7 1 4 1015.1 1014.9 0.0
01/05:30pm 23.0 20.5 5.0 31 9.0 WNW 7 9 4 5 1014.9 - 0.0
01/05:00pm 26.0 23.2 5.0 26 10.8 W 9 13 5 7 1014.5 - 0.0
01/04:30pm 26.9 24.1 5.2 25 11.2 W 9 13 5 7 1014.4 - 0.0
01/04:00pm 26.6 23.1 5.5 26 10.9 NNW 13 17 7 9 1014.4 - 0.0
01/03:30pm 28.0 24.2 5.6 24 11.7 W 15 24 8 13 1014.5 - 0.0
01/03:00pm 26.8 24.6 6.2 27 10.8 WNW 7 11 4 6 1014.5 1014.3 0.0
01/02:30pm 25.0 21.4 5.2 28 10.1 WNW 13 17 7 9 1014.9 - 0.0
01/02:00pm 27.1 22.8 7.0 28 10.7 NNW 19 26 10 14 1015.1 - 0.0
01/01:30pm 25.3 23.7 7.9 33 9.3 E 6 11 3 6 1015.7 - 0.0
01/01:00pm 26.4 22.5 8.8 33 9.7 NNW 19 30 10 16 1015.9 - 0.0
01/12:30pm 26.6 23.5 10.3 36 9.2 WNW 17 26 9 14 1016.5 - 0.0
01/12:00pm 25.0 22.1 12.2 44 7.4 NNW 19 28 10 15 1017.0 1016.9 0.0
01/11:30am 24.6 22.4 13.2 49 6.7 NW 17 28 9 15 1017.7 - 0.0
01/11:00am 23.4 20.4 12.7 51 6.2 NNW 20 26 11 14 1018.3 - 0.0
01/10:30am 22.9 20.4 13.4 55 5.5 NW 19 26 10 14 1018.8 - 0.0
01/10:00am 21.7 19.9 13.3 59 4.9 NW 15 22 8 12 1019.0 - 0.0
01/09:30am 20.5 19.8 13.2 63 4.2 NNW 9 20 5 11 1019.3 - 0.0
01/09:00am 18.2 19.2 13.1 72 2.9 CALM 0 0 0 0 1019.4 1019.2 0.0
01/08:30am 15.2 14.9 11.4 78 2.1 ESE 4 7 2 4 1019.3 - 0.0
01/08:00am 13.1 13.5 11.3 89 1.0 CALM 0 0 0 0 1019.1 - 0.0
01/07:30am 10.7 9.5 10.4 98 0.2 E 7 9 4 5 1018.6 - 0.0
01/07:00am 7.8 7.2 7.2 96 0.3 CALM 0 0 0 0 1018.4 - 0.0
01/06:30am 7.1 6.3 6.4 95 0.3 CALM 0 0 0 0 1018.2 - 0.0
01/06:08am 7.7 5.7 7.1 96 0.3 SSE 7 11 4 6 1018.1 - 0.0
01/06:00am 7.1 4.9 6.4 95 0.3 S 7 11 4 6 1018.1 1017.9 0.0
01/05:47am 6.9 4.6 5.8 93 0.5 E 7 9 4 5 1017.7 - 0.0
01/05:33am 7.2 5.0 6.1 93 0.5 E 7 11 4 6 1017.7 - 0.0
01/05:30am 8.0 6.0 7.2 95 0.4 ESE 7 11 4 6 1017.7 - 0.0
01/05:19am 9.0 7.3 8.5 97 0.2 ESE 7 9 4 5 1017.7 - 0.0
01/05:00am 8.8 7.2 8.2 96 0.3 E 6 7 3 4 1017.6 - 0.0
01/04:57am 8.5 6.8 7.7 95 0.4 ESE 6 7 3 4 1017.7 - 0.0
01/04:30am 9.2 8.9 8.6 96 0.3 CALM 0 0 0 0 1017.6 - 0.0
01/04:23am 8.7 8.2 7.9 95 0.4 CALM 0 0 0 0 1017.6 - 0.0
01/04:07am 8.0 7.3 6.9 93 0.5 ESE 0 0 0 0 1017.4 - 0.0
01/04:00am 9.0 8.6 8.1 94 0.4 CALM 0 0 0 0 1017.3 - 0.0
01/03:49am 9.5 9.3 8.9 96 0.3 CALM 0 0 0 0 1017.3 - 0.0
01/03:41am 9.4 9.1 8.6 95 0.4 CALM 0 0 0 0 1017.2 - 0.0
01/03:30am 9.2 8.8 8.3 94 0.4 CALM 0 0 0 0 1017.3 - 0.0
01/03:22am 9.1 8.3 8.3 95 0.4 S 2 7 1 4 1017.3 - 0.0
01/03:00am 9.0 7.2 7.8 92 0.6 SSW 7 11 4 6 1017.6 1017.5 0.0
01/02:30am 11.3 10.0 10.0 92 0.7 ESE 7 9 4 5 1017.5 - 0.0
01/02:00am 11.0 9.2 9.6 91 0.7 ENE 9 11 5 6 1018.1 - 0.0
01/01:30am 11.7 11.8 10.3 91 0.7 CALM 0 0 0 0 1018.6 - 0.0
01/01:00am 11.0 10.8 8.9 87 1.1 CALM 0 0 0 0 1018.7 - 0.0
01/12:30am 11.2 11.1 9.3 88 1.0 CALM 0 0 0 0 1018.9 - 0.0
01/12:00am 11.9 11.6 10.0 88 1.0 E 2 7 1 4 1018.9 1018.8 0.0
 
Date/Time
EST
Temp
°C
App
Temp
°C
Dew
Point
Rel
Hum
%
Delta-T
°C
Wind Press
QNH
hPa
Press
MSL
hPa
Rain
since 9 am
mm
Dir
 
Spd
km/h
Gust
km/h
Spd
kts
Gust
kts
31/11:30pm 12.9 12.9 9.7 81 1.7 CALM 0 0 0 0 1019.0 - 0.0
31/11:00pm 14.8 15.4 11.9 83 1.6 CALM 0 0 0 0 1019.0 - 0.0
31/10:30pm 15.9 15.7 11.9 77 2.2 E 4 9 2 5 1019.0 - 0.0
31/10:00pm 17.7 16.8 12.6 72 2.9 NNE 9 11 5 6 1019.2 - 0.0
31/09:30pm 17.9 17.6 12.6 71 3.0 NNE 6 11 3 6 1019.2 - 0.0
31/09:00pm 18.7 17.5 12.9 69 3.3 NNE 11 17 6 9 1018.9 1018.8 0.0
31/08:30pm 18.5 17.5 12.3 67 3.5 N 9 15 5 8 1018.5 - 0.0
31/08:00pm 19.4 17.1 12.9 66 3.7 NNE 17 26 9 14 1018.0 - 0.0
31/07:30pm 19.7 16.9 12.7 64 4.0 NNE 19 26 10 14 1017.6 - 0.0
31/07:00pm 20.2 17.2 12.4 61 4.4 NNE 20 28 11 15 1017.1 - 0.0
31/06:30pm 21.5 18.0 12.1 55 5.3 NNE 22 32 12 17 1016.8 - 0.0
31/06:00pm 21.3 19.1 6.4 38 7.6 N 7 9 4 5 1016.5 1016.4 0.0
31/05:30pm 21.9 19.2 5.8 35 8.2 NW 9 9 5 5 1016.3 - 0.0
31/05:00pm 23.7 20.4 6.5 33 8.9 NW 13 17 7 9 1016.3 - 0.0
31/04:30pm 25.3 23.2 6.0 29 10.0 NW 6 13 3 7 1016.3 - 0.0
31/04:00pm 25.0 22.4 6.2 30 9.8 N 9 13 5 7 1016.2 - 0.0
31/03:30pm 25.9 22.6 6.5 29 10.2 NW 13 20 7 11 1016.4 - 0.0
31/03:00pm 25.2 23.0 6.4 30 9.8 ENE 7 13 4 7 1016.5 1016.4 0.0
31/02:30pm 24.3 23.1 6.6 32 9.2 SSE 2 7 1 4 1016.8 - 0.0
31/02:00pm 24.1 21.2 6.4 32 9.2 WNW 11 13 6 7 1017.2 - 0.0
31/01:30pm 25.4 22.1 6.6 30 9.9 NNW 13 28 7 15 1018.0 - 0.0
31/01:00pm 26.1 23.0 7.2 30 10.1 N 13 22 7 12 1018.4 - 0.0
31/12:30pm 25.7 22.5 6.8 30 10.0 NW 13 19 7 10 1018.9 - 0.0
31/12:00pm 23.8 20.5 6.6 33 8.9 NNW 13 24 7 13 1019.7 1019.6 0.0
31/11:30am 23.9 20.9 7.5 35 8.7 NW 13 19 7 10 1020.3 - 0.0
31/11:00am 24.2 21.9 9.0 38 8.3 NNW 11 19 6 10 1021.0 - 0.0
31/10:30am 21.6 20.1 9.2 45 6.7 SSW 7 11 4 6 1021.4 - 0.0
31/10:00am 21.3 20.6 9.9 48 6.2 NNE 4 7 2 4 1021.8 - 0.0
31/09:30am 19.1 17.6 9.0 52 5.3 SE 7 9 4 5 1022.1 - 0.0
31/09:00am 16.7 14.8 7.6 55 4.6 E 7 9 4 5 1022.3 1022.3 0.0
31/08:30am 13.1 10.9 5.3 59 3.7 SE 6 7 3 4 1022.4 - 0.0
31/08:00am 10.7 8.0 5.5 70 2.4 ESE 9 11 5 6 1022.1 - 0.0
31/07:30am 7.6 3.9 4.2 79 1.5 E 13 15 7 8 1022.0 - 0.0
31/07:00am 6.3 2.8 3.6 83 1.2 ESE 11 13 6 7 1021.8 - 0.0
31/06:30am 5.5 2.2 2.7 82 1.2 ESE 9 11 5 6 1021.6 - 0.0
31/06:00am 6.2 2.7 3.7 84 1.1 E 11 11 6 6 1021.4 1021.4 0.0
31/05:30am 6.2 2.7 3.7 84 1.1 E 11 11 6 6 1021.1 - 0.0
31/05:00am 5.7 2.5 2.9 82 1.2 E 9 9 5 5 1020.7 - 0.0
31/04:30am 6.7 3.7 3.9 82 1.2 E 9 11 5 6 1020.4 - 0.0
31/04:00am 6.6 3.6 3.9 83 1.2 E 9 11 5 6 1020.5 - 0.0
31/03:30am 6.3 3.3 4.0 85 1.0 E 9 9 5 5 1020.6 - 0.0
31/03:00am 7.3 4.8 4.6 83 1.2 ESE 7 9 4 5 1020.7 1020.6 0.0
31/02:30am 6.3 3.6 3.8 84 1.1 SE 7 7 4 4 1020.8 - 0.0
31/02:00am 6.4 3.8 3.2 80 1.4 SE 6 7 3 4 1020.9 - 0.0
31/01:30am 6.7 4.1 3.3 79 1.4 E 6 7 3 4 1021.1 - 0.0
31/01:00am 7.4 5.4 4.2 80 1.4 E 4 9 2 5 1021.3 - 0.0
31/12:30am 8.4 6.7 4.0 74 1.9 E 2 7 1 4 1021.3 - 0.0
31/12:00am 8.6 6.2 4.4 75 1.9 E 6 7 3 4 1021.2 1021.2 0.0
 
Date/Time
EST
Temp
°C
App
Temp
°C
Dew
Point
Rel
Hum
%
Delta-T
°C
Wind Press
QNH
hPa
Press
MSL
hPa
Rain
since 9 am
mm
Dir
 
Spd
km/h
Gust
km/h
Spd
kts
Gust
kts
30/11:30pm 9.5 7.2 4.9 73 2.1 ESE 6 7 3 4 1021.4 - 0.0
30/11:00pm 10.2 8.9 6.0 75 2.0 SW 2 9 1 5 1021.6 - 0.0
30/10:30pm 10.7 9.6 5.3 69 2.5 CALM 0 0 0 0 1021.7 - 0.0
30/10:00pm 10.9 9.7 4.6 65 2.9 CALM 0 0 0 0 1021.7 - 0.0
30/09:30pm 11.6 8.7 4.8 63 3.1 SSW 9 11 5 6 1021.7 - 0.0
30/09:00pm 15.8 14.1 7.6 58 4.1 SE 6 11 3 6 1021.4 1021.4 0.0
30/08:30pm 14.9 13.4 4.9 51 4.7 NNE 2 6 1 3 1021.4 - 0.0
30/08:00pm 17.6 15.6 6.2 47 5.7 E 6 7 3 4 1021.1 - 0.0
30/07:30pm 19.1 16.1 6.2 43 6.5 N 11 17 6 9 1021.0 - 0.0
30/07:00pm 19.8 16.9 6.5 42 6.7 NNE 11 15 6 8 1020.4 - 0.0
30/06:30pm 18.4 16.4 6.9 47 5.8 NNE 7 11 4 6 1019.9 - 0.0
30/06:00pm 16.8 14.1 3.5 41 6.2 N 7 9 4 5 1019.5 1019.4 0.0
30/05:30pm 20.6 18.1 3.8 33 8.1 WNW 6 7 3 4 1019.1 - 0.0
30/05:00pm 24.1 21.6 5.0 29 9.7 W 7 11 4 6 1019.1 - 0.0
30/04:30pm 25.1 23.6 4.8 27 10.3 WSW 2 9 1 5 1019.0 - 0.0
30/04:00pm 25.7 23.5 5.3 27 10.5 S 6 11 3 6 1018.8 - 0.0
30/03:30pm 25.2 22.9 4.9 27 10.3 ESE 6 9 3 5 1018.9 - 0.0
30/03:00pm 25.2 21.6 4.9 27 10.3 WSW 13 20 7 11 1019.1 1019.0 0.0
30/02:30pm 25.6 22.7 4.7 26 10.6 WSW 9 13 5 7 1019.4 - 0.0
30/02:00pm 24.6 21.7 4.4 27 10.1 SE 9 15 5 8 1019.9 - 0.0
30/01:30pm 24.2 21.3 4.6 28 9.9 SSE 9 15 5 8 1020.3 - 0.0
30/01:00pm 24.0 20.9 5.4 30 9.5 W 11 20 6 11 1020.8 - 0.0
30/12:30pm 24.0 21.0 5.8 31 9.3 WNW 11 19 6 10 1021.6 - 0.0
30/12:00pm 23.2 20.6 6.0 33 8.8 WNW 9 15 5 8 1022.4 1022.4 0.0
30/11:30am 22.9 19.9 6.2 34 8.6 WNW 11 17 6 9 1023.1 - 0.0
30/11:00am 22.0 19.3 5.4 34 8.4 WNW 9 17 5 9 1023.8 - 0.0
30/10:30am 20.8 18.2 6.0 38 7.5 NW 9 19 5 10 1024.2 - 0.0
30/10:00am 20.1 18.7 7.1 43 6.7 NW 4 11 2 6 1024.6 - 0.0
30/09:30am 18.3 16.6 7.4 49 5.6 ESE 6 13 3 7 1024.9 - 0.0
30/09:00am 15.3 13.4 7.6 60 3.8 E 7 9 4 5 1024.9 1024.8 -
30/08:30am 11.9 9.9 7.0 72 2.4 ESE 7 7 4 4 1024.7 - -
30/08:00am 9.9 7.6 7.3 84 1.2 E 9 9 5 5 1024.5 - -
30/07:30am 7.8 5.2 5.9 88 0.9 E 9 11 5 6 1024.2 - -
30/07:00am 6.2 3.4 5.3 94 0.4 E 9 13 5 7 1023.8 - -
30/06:30am 5.7 2.4 4.8 94 0.4 E 11 11 6 6 1023.5 - -
30/06:00am 5.5 2.2 4.6 94 0.4 E 11 11 6 6 1023.0 1023.0 -
30/05:30am 4.9 2.3 4.0 94 0.4 E 7 9 4 5 1022.7 - -
30/05:00am 5.5 2.9 4.2 91 0.6 SSE 7 7 4 4 1022.4 - -
30/04:30am 6.7 3.7 6.0 95 0.3 E 11 13 6 7 1022.1 - -
30/04:00am 6.5 4.1 5.1 91 0.6 E 7 9 4 5 1022.2 - -
30/03:30am 7.0 4.3 5.8 92 0.5 ESE 9 11 5 6 1022.1 - -
30/03:00am 6.5 3.8 5.6 94 0.4 E 9 11 5 6 1022.1 1022.1 -
30/02:30am 6.0 3.4 4.3 89 0.7 ESE 7 11 4 6 1022.0 - -
30/02:00am 6.7 3.9 5.0 89 0.8 E 9 11 5 6 1022.1 - -
30/01:30am 7.3 4.7 5.9 91 0.6 E 9 9 5 5 1022.2 - -
30/01:00am 6.5 5.2 4.2 85 1.0 CALM 0 0 0 0 1022.2 - -
30/12:30am 7.0 5.8 4.5 84 1.1 CALM 0 0 0 0 1022.2 - -
30/12:00am 7.1 5.7 3.7 79 1.5 CALM 0 0 0 0 1022.0 1022.0 -

Other Formats:

Comma delimited format used in spreadsheet applications
http://www.bom.gov.au/fwo/IDQ60801/IDQ60801.94376.axf

JavaScript Object Notation format (JSON) in row-major order
http://www.bom.gov.au/fwo/IDQ60801/IDQ60801.94376.json